sensor_id;sensor_type;location;lat;lon;timestamp;P1;durP1;ratioP1;P2;durP2;ratioP2
10641;SDS011;5369;49.586;8.646;2023-11-22T00:01:11;4.33;;;3.80;;
10641;SDS011;5369;49.586;8.646;2023-11-22T00:03:37;4.40;;;3.60;;
10641;SDS011;5369;49.586;8.646;2023-11-22T00:06:04;4.73;;;4.10;;
10641;SDS011;5369;49.586;8.646;2023-11-22T00:08:32;4.73;;;3.70;;
10641;SDS011;5369;49.586;8.646;2023-11-22T00:10:59;4.83;;;3.80;;
10641;SDS011;5369;49.586;8.646;2023-11-22T00:13:26;3.93;;;3.53;;
10641;SDS011;5369;49.586;8.646;2023-11-22T00:15:52;3.93;;;3.53;;
10641;SDS011;5369;49.586;8.646;2023-11-22T00:18:18;3.83;;;3.37;;
10641;SDS011;5369;49.586;8.646;2023-11-22T00:20:44;3.77;;;3.40;;
10641;SDS011;5369;49.586;8.646;2023-11-22T00:23:14;4.83;;;3.63;;
10641;SDS011;5369;49.586;8.646;2023-11-22T00:25:40;3.80;;;3.20;;
10641;SDS011;5369;49.586;8.646;2023-11-22T00:28:06;4.43;;;3.57;;
10641;SDS011;5369;49.586;8.646;2023-11-22T00:30:32;3.57;;;3.10;;
10641;SDS011;5369;49.586;8.646;2023-11-22T00:32:58;4.50;;;3.40;;
10641;SDS011;5369;49.586;8.646;2023-11-22T00:35:24;4.50;;;3.10;;
10641;SDS011;5369;49.586;8.646;2023-11-22T00:37:50;3.43;;;3.07;;
10641;SDS011;5369;49.586;8.646;2023-11-22T00:40:16;3.43;;;2.90;;
10641;SDS011;5369;49.586;8.646;2023-11-22T00:42:43;3.33;;;3.03;;
10641;SDS011;5369;49.586;8.646;2023-11-22T00:45:09;4.17;;;3.40;;
10641;SDS011;5369;49.586;8.646;2023-11-22T00:47:36;4.13;;;3.50;;
10641;SDS011;5369;49.586;8.646;2023-11-22T00:50:04;3.83;;;3.40;;
10641;SDS011;5369;49.586;8.646;2023-11-22T00:52:30;3.93;;;3.17;;
10641;SDS011;5369;49.586;8.646;2023-11-22T00:54:57;4.07;;;3.07;;
10641;SDS011;5369;49.586;8.646;2023-11-22T00:57:23;3.87;;;2.90;;
10641;SDS011;5369;49.586;8.646;2023-11-22T00:59:49;3.10;;;2.77;;
10641;SDS011;5369;49.586;8.646;2023-11-22T01:02:16;3.73;;;2.93;;
10641;SDS011;5369;49.586;8.646;2023-11-22T01:04:42;3.50;;;3.20;;
10641;SDS011;5369;49.586;8.646;2023-11-22T01:07:08;2.97;;;2.67;;
10641;SDS011;5369;49.586;8.646;2023-11-22T01:09:35;4.60;;;2.87;;
10641;SDS011;5369;49.586;8.646;2023-11-22T01:12:01;3.27;;;2.80;;
10641;SDS011;5369;49.586;8.646;2023-11-22T01:14:28;4.37;;;3.47;;
10641;SDS011;5369;49.586;8.646;2023-11-22T01:16:54;5.93;;;3.03;;
10641;SDS011;5369;49.586;8.646;2023-11-22T01:19:22;4.53;;;3.57;;
10641;SDS011;5369;49.586;8.646;2023-11-22T01:21:48;4.70;;;3.30;;
10641;SDS011;5369;49.586;8.646;2023-11-22T01:24:14;3.40;;;3.10;;
10641;SDS011;5369;49.586;8.646;2023-11-22T01:26:41;3.97;;;3.23;;
10641;SDS011;5369;49.586;8.646;2023-11-22T01:29:08;5.73;;;3.40;;
10641;SDS011;5369;49.586;8.646;2023-11-22T01:31:34;3.67;;;3.33;;
10641;SDS011;5369;49.586;8.646;2023-11-22T01:34:00;5.07;;;3.30;;
10641;SDS011;5369;49.586;8.646;2023-11-22T01:36:27;4.80;;;3.70;;
10641;SDS011;5369;49.586;8.646;2023-11-22T01:38:53;3.97;;;3.43;;
10641;SDS011;5369;49.586;8.646;2023-11-22T01:41:21;4.57;;;3.23;;
10641;SDS011;5369;49.586;8.646;2023-11-22T01:43:47;4.30;;;3.43;;
10641;SDS011;5369;49.586;8.646;2023-11-22T01:46:23;4.00;;;3.40;;
10641;SDS011;5369;49.586;8.646;2023-11-22T01:48:50;5.73;;;3.50;;
10641;SDS011;5369;49.586;8.646;2023-11-22T01:51:21;5.13;;;3.40;;
10641;SDS011;5369;49.586;8.646;2023-11-22T01:53:48;3.70;;;3.03;;
10641;SDS011;5369;49.586;8.646;2023-11-22T01:56:15;3.57;;;3.07;;
10641;SDS011;5369;49.586;8.646;2023-11-22T01:58:43;3.37;;;2.97;;
10641;SDS011;5369;49.586;8.646;2023-11-22T02:01:09;3.10;;;2.70;;
10641;SDS011;5369;49.586;8.646;2023-11-22T02:03:35;3.50;;;2.87;;
10641;SDS011;5369;49.586;8.646;2023-11-22T02:06:01;2.90;;;2.30;;
10641;SDS011;5369;49.586;8.646;2023-11-22T02:08:28;3.63;;;2.60;;
10641;SDS011;5369;49.586;8.646;2023-11-22T02:10:57;4.27;;;2.60;;
10641;SDS011;5369;49.586;8.646;2023-11-22T02:13:24;2.80;;;2.17;;
10641;SDS011;5369;49.586;8.646;2023-11-22T02:15:51;3.77;;;2.30;;
10641;SDS011;5369;49.586;8.646;2023-11-22T02:18:21;2.80;;;2.43;;
10641;SDS011;5369;49.586;8.646;2023-11-22T02:20:48;2.87;;;2.33;;
10641;SDS011;5369;49.586;8.646;2023-11-22T02:23:15;3.13;;;2.40;;
10641;SDS011;5369;49.586;8.646;2023-11-22T02:25:42;2.60;;;2.40;;
10641;SDS011;5369;49.586;8.646;2023-11-22T02:28:08;3.10;;;2.23;;
10641;SDS011;5369;49.586;8.646;2023-11-22T02:30:35;3.80;;;2.30;;
10641;SDS011;5369;49.586;8.646;2023-11-22T02:33:01;2.90;;;2.50;;
10641;SDS011;5369;49.586;8.646;2023-11-22T02:35:28;4.40;;;2.40;;
10641;SDS011;5369;49.586;8.646;2023-11-22T02:37:54;2.53;;;2.20;;
10641;SDS011;5369;49.586;8.646;2023-11-22T02:40:21;2.53;;;2.13;;
10641;SDS011;5369;49.586;8.646;2023-11-22T02:42:47;3.07;;;2.20;;
10641;SDS011;5369;49.586;8.646;2023-11-22T02:45:15;3.23;;;2.40;;
10641;SDS011;5369;49.586;8.646;2023-11-22T02:47:41;3.30;;;2.57;;
10641;SDS011;5369;49.586;8.646;2023-11-22T02:50:14;3.47;;;2.30;;
10641;SDS011;5369;49.586;8.646;2023-11-22T02:52:40;3.00;;;2.40;;
10641;SDS011;5369;49.586;8.646;2023-11-22T02:55:07;2.70;;;2.20;;
10641;SDS011;5369;49.586;8.646;2023-11-22T02:57:35;2.30;;;2.10;;
10641;SDS011;5369;49.586;8.646;2023-11-22T03:00:02;3.03;;;2.40;;
10641;SDS011;5369;49.586;8.646;2023-11-22T03:02:29;3.00;;;2.47;;
10641;SDS011;5369;49.586;8.646;2023-11-22T03:04:57;2.47;;;2.03;;
10641;SDS011;5369;49.586;8.646;2023-11-22T03:07:23;2.40;;;2.13;;
10641;SDS011;5369;49.586;8.646;2023-11-22T03:09:50;2.50;;;2.20;;
10641;SDS011;5369;49.586;8.646;2023-11-22T03:12:16;4.10;;;3.00;;
10641;SDS011;5369;49.586;8.646;2023-11-22T03:14:43;4.03;;;3.07;;
10641;SDS011;5369;49.586;8.646;2023-11-22T03:17:09;3.67;;;2.63;;
10641;SDS011;5369;49.586;8.646;2023-11-22T03:19:36;3.37;;;2.50;;
10641;SDS011;5369;49.586;8.646;2023-11-22T03:22:02;2.67;;;2.27;;
10641;SDS011;5369;49.586;8.646;2023-11-22T03:24:29;2.93;;;2.27;;
10641;SDS011;5369;49.586;8.646;2023-11-22T03:26:55;4.77;;;2.47;;
10641;SDS011;5369;49.586;8.646;2023-11-22T03:29:24;12.67;;;5.47;;
10641;SDS011;5369;49.586;8.646;2023-11-22T03:31:50;10.57;;;5.30;;
10641;SDS011;5369;49.586;8.646;2023-11-22T03:34:16;8.23;;;4.33;;
10641;SDS011;5369;49.586;8.646;2023-11-22T03:36:43;10.90;;;5.10;;
10641;SDS011;5369;49.586;8.646;2023-11-22T03:39:09;12.97;;;7.20;;
10641;SDS011;5369;49.586;8.646;2023-11-22T03:41:35;11.07;;;6.37;;
10641;SDS011;5369;49.586;8.646;2023-11-22T03:44:03;9.77;;;6.43;;
10641;SDS011;5369;49.586;8.646;2023-11-22T03:46:29;14.60;;;6.00;;
10641;SDS011;5369;49.586;8.646;2023-11-22T03:48:55;7.40;;;4.77;;
10641;SDS011;5369;49.586;8.646;2023-11-22T03:51:22;6.10;;;4.30;;
10641;SDS011;5369;49.586;8.646;2023-11-22T03:53:48;5.30;;;3.40;;
10641;SDS011;5369;49.586;8.646;2023-11-22T03:56:14;3.20;;;2.60;;
10641;SDS011;5369;49.586;8.646;2023-11-22T03:58:40;3.10;;;2.60;;
10641;SDS011;5369;49.586;8.646;2023-11-22T04:01:06;3.17;;;2.80;;
10641;SDS011;5369;49.586;8.646;2023-11-22T04:03:32;3.23;;;2.90;;
10641;SDS011;5369;49.586;8.646;2023-11-22T04:05:58;3.83;;;2.80;;
10641;SDS011;5369;49.586;8.646;2023-11-22T04:08:25;4.50;;;3.80;;
10641;SDS011;5369;49.586;8.646;2023-11-22T04:10:51;5.00;;;3.20;;
10641;SDS011;5369;49.586;8.646;2023-11-22T04:13:17;3.50;;;3.20;;
10641;SDS011;5369;49.586;8.646;2023-11-22T04:15:43;3.90;;;3.30;;
10641;SDS011;5369;49.586;8.646;2023-11-22T04:18:10;4.07;;;2.97;;
10641;SDS011;5369;49.586;8.646;2023-11-22T04:20:36;4.40;;;3.03;;
10641;SDS011;5369;49.586;8.646;2023-11-22T04:23:02;3.73;;;2.80;;
10641;SDS011;5369;49.586;8.646;2023-11-22T04:25:28;3.50;;;2.83;;
10641;SDS011;5369;49.586;8.646;2023-11-22T04:27:54;3.73;;;3.10;;
10641;SDS011;5369;49.586;8.646;2023-11-22T04:30:21;3.40;;;2.80;;
10641;SDS011;5369;49.586;8.646;2023-11-22T04:32:47;3.87;;;3.20;;
10641;SDS011;5369;49.586;8.646;2023-11-22T04:35:14;4.60;;;3.07;;
10641;SDS011;5369;49.586;8.646;2023-11-22T04:37:40;4.37;;;3.23;;
10641;SDS011;5369;49.586;8.646;2023-11-22T04:40:06;4.83;;;3.37;;
10641;SDS011;5369;49.586;8.646;2023-11-22T04:42:36;4.37;;;3.07;;
10641;SDS011;5369;49.586;8.646;2023-11-22T04:45:03;4.43;;;3.20;;
10641;SDS011;5369;49.586;8.646;2023-11-22T04:47:29;3.20;;;2.90;;
10641;SDS011;5369;49.586;8.646;2023-11-22T04:49:55;5.43;;;3.77;;
10641;SDS011;5369;49.586;8.646;2023-11-22T04:52:21;4.17;;;3.50;;
10641;SDS011;5369;49.586;8.646;2023-11-22T04:54:47;4.47;;;3.33;;
10641;SDS011;5369;49.586;8.646;2023-11-22T04:57:14;4.23;;;3.17;;
10641;SDS011;5369;49.586;8.646;2023-11-22T04:59:40;3.87;;;3.20;;
10641;SDS011;5369;49.586;8.646;2023-11-22T05:02:07;3.37;;;2.90;;
10641;SDS011;5369;49.586;8.646;2023-11-22T05:04:33;3.90;;;3.03;;
10641;SDS011;5369;49.586;8.646;2023-11-22T05:07:00;3.60;;;3.03;;
10641;SDS011;5369;49.586;8.646;2023-11-22T05:09:26;3.73;;;2.90;;
10641;SDS011;5369;49.586;8.646;2023-11-22T05:11:53;3.97;;;3.00;;
10641;SDS011;5369;49.586;8.646;2023-11-22T05:14:19;5.23;;;3.33;;
10641;SDS011;5369;49.586;8.646;2023-11-22T05:16:45;3.30;;;2.90;;
10641;SDS011;5369;49.586;8.646;2023-11-22T05:19:11;3.97;;;2.93;;
10641;SDS011;5369;49.586;8.646;2023-11-22T05:21:37;3.90;;;2.93;;
10641;SDS011;5369;49.586;8.646;2023-11-22T05:24:03;4.90;;;3.10;;
10641;SDS011;5369;49.586;8.646;2023-11-22T05:26:30;3.83;;;3.17;;
10641;SDS011;5369;49.586;8.646;2023-11-22T05:28:56;4.47;;;3.50;;
10641;SDS011;5369;49.586;8.646;2023-11-22T05:31:22;4.97;;;3.00;;
10641;SDS011;5369;49.586;8.646;2023-11-22T05:33:49;6.20;;;3.13;;
10641;SDS011;5369;49.586;8.646;2023-11-22T05:36:15;4.80;;;3.10;;
10641;SDS011;5369;49.586;8.646;2023-11-22T05:38:42;4.50;;;3.13;;
10641;SDS011;5369;49.586;8.646;2023-11-22T05:41:08;5.67;;;3.40;;
10641;SDS011;5369;49.586;8.646;2023-11-22T05:43:34;5.20;;;3.38;;
10641;SDS011;5369;49.586;8.646;2023-11-22T05:46:02;4.87;;;3.30;;
10641;SDS011;5369;49.586;8.646;2023-11-22T05:48:28;4.57;;;3.10;;
10641;SDS011;5369;49.586;8.646;2023-11-22T05:50:54;4.10;;;3.30;;
10641;SDS011;5369;49.586;8.646;2023-11-22T05:53:20;4.20;;;3.07;;
10641;SDS011;5369;49.586;8.646;2023-11-22T05:55:47;4.22;;;2.90;;
10641;SDS011;5369;49.586;8.646;2023-11-22T05:58:13;3.70;;;3.00;;
10641;SDS011;5369;49.586;8.646;2023-11-22T06:00:46;4.37;;;3.10;;
10641;SDS011;5369;49.586;8.646;2023-11-22T06:03:12;4.57;;;3.30;;
10641;SDS011;5369;49.586;8.646;2023-11-22T06:05:39;5.13;;;3.03;;
10641;SDS011;5369;49.586;8.646;2023-11-22T06:08:06;3.73;;;3.03;;
10641;SDS011;5369;49.586;8.646;2023-11-22T06:10:34;4.33;;;3.50;;
10641;SDS011;5369;49.586;8.646;2023-11-22T06:13:00;4.43;;;3.10;;
10641;SDS011;5369;49.586;8.646;2023-11-22T06:15:26;3.83;;;3.03;;
10641;SDS011;5369;49.586;8.646;2023-11-22T06:17:52;5.27;;;3.20;;
10641;SDS011;5369;49.586;8.646;2023-11-22T06:20:19;3.93;;;3.20;;
10641;SDS011;5369;49.586;8.646;2023-11-22T06:22:46;5.07;;;3.30;;
10641;SDS011;5369;49.586;8.646;2023-11-22T06:25:12;4.20;;;3.30;;
10641;SDS011;5369;49.586;8.646;2023-11-22T06:27:38;6.73;;;3.60;;
10641;SDS011;5369;49.586;8.646;2023-11-22T06:30:05;4.90;;;3.60;;
10641;SDS011;5369;49.586;8.646;2023-11-22T06:32:32;3.50;;;3.00;;
10641;SDS011;5369;49.586;8.646;2023-11-22T06:34:59;5.00;;;3.37;;
10641;SDS011;5369;49.586;8.646;2023-11-22T06:37:25;5.53;;;3.37;;
10641;SDS011;5369;49.586;8.646;2023-11-22T06:39:51;4.33;;;3.50;;
10641;SDS011;5369;49.586;8.646;2023-11-22T06:42:18;6.60;;;3.97;;
10641;SDS011;5369;49.586;8.646;2023-11-22T06:44:47;4.60;;;3.70;;
10641;SDS011;5369;49.586;8.646;2023-11-22T06:47:13;5.70;;;3.80;;
10641;SDS011;5369;49.586;8.646;2023-11-22T06:49:40;7.07;;;4.07;;
10641;SDS011;5369;49.586;8.646;2023-11-22T06:52:06;7.80;;;4.27;;
10641;SDS011;5369;49.586;8.646;2023-11-22T06:54:34;5.53;;;4.20;;
10641;SDS011;5369;49.586;8.646;2023-11-22T06:57:02;7.77;;;3.97;;
10641;SDS011;5369;49.586;8.646;2023-11-22T06:59:28;7.03;;;5.00;;
10641;SDS011;5369;49.586;8.646;2023-11-22T07:01:54;10.87;;;6.30;;
10641;SDS011;5369;49.586;8.646;2023-11-22T07:04:21;8.77;;;5.90;;
10641;SDS011;5369;49.586;8.646;2023-11-22T07:06:48;7.20;;;4.60;;
10641;SDS011;5369;49.586;8.646;2023-11-22T07:09:14;5.87;;;4.20;;
10641;SDS011;5369;49.586;8.646;2023-11-22T07:11:41;5.70;;;3.77;;
10641;SDS011;5369;49.586;8.646;2023-11-22T07:14:09;5.47;;;4.20;;
10641;SDS011;5369;49.586;8.646;2023-11-22T07:16:35;5.47;;;3.93;;
10641;SDS011;5369;49.586;8.646;2023-11-22T07:19:02;5.47;;;4.10;;
10641;SDS011;5369;49.586;8.646;2023-11-22T07:21:29;5.47;;;4.30;;
10641;SDS011;5369;49.586;8.646;2023-11-22T07:23:55;5.33;;;3.83;;
10641;SDS011;5369;49.586;8.646;2023-11-22T07:26:21;4.60;;;3.47;;
10641;SDS011;5369;49.586;8.646;2023-11-22T07:28:49;5.43;;;4.00;;
10641;SDS011;5369;49.586;8.646;2023-11-22T07:31:15;5.37;;;4.00;;
10641;SDS011;5369;49.586;8.646;2023-11-22T07:33:41;4.60;;;3.60;;
10641;SDS011;5369;49.586;8.646;2023-11-22T07:36:08;4.83;;;3.60;;
10641;SDS011;5369;49.586;8.646;2023-11-22T07:38:34;4.77;;;3.37;;
10641;SDS011;5369;49.586;8.646;2023-11-22T07:41:00;5.83;;;3.60;;
10641;SDS011;5369;49.586;8.646;2023-11-22T07:43:27;5.90;;;3.80;;
10641;SDS011;5369;49.586;8.646;2023-11-22T07:45:53;5.77;;;3.87;;
10641;SDS011;5369;49.586;8.646;2023-11-22T07:48:19;6.53;;;4.30;;
10641;SDS011;5369;49.586;8.646;2023-11-22T07:50:45;5.37;;;4.00;;
10641;SDS011;5369;49.586;8.646;2023-11-22T07:53:14;5.70;;;3.90;;
10641;SDS011;5369;49.586;8.646;2023-11-22T07:55:41;5.33;;;3.73;;
10641;SDS011;5369;49.586;8.646;2023-11-22T07:58:08;5.47;;;4.00;;
10641;SDS011;5369;49.586;8.646;2023-11-22T08:00:34;5.93;;;4.37;;
10641;SDS011;5369;49.586;8.646;2023-11-22T08:03:00;5.43;;;4.40;;
10641;SDS011;5369;49.586;8.646;2023-11-22T08:05:31;5.23;;;3.97;;
10641;SDS011;5369;49.586;8.646;2023-11-22T08:08:02;7.20;;;4.27;;
10641;SDS011;5369;49.586;8.646;2023-11-22T08:10:31;5.43;;;4.17;;
10641;SDS011;5369;49.586;8.646;2023-11-22T08:12:59;6.00;;;3.90;;
10641;SDS011;5369;49.586;8.646;2023-11-22T08:15:27;5.17;;;3.80;;
10641;SDS011;5369;49.586;8.646;2023-11-22T08:17:53;4.00;;;3.60;;
10641;SDS011;5369;49.586;8.646;2023-11-22T08:20:20;5.50;;;3.80;;
10641;SDS011;5369;49.586;8.646;2023-11-22T08:22:47;4.93;;;3.73;;
10641;SDS011;5369;49.586;8.646;2023-11-22T08:25:16;5.73;;;4.00;;
10641;SDS011;5369;49.586;8.646;2023-11-22T08:27:42;5.60;;;3.97;;
10641;SDS011;5369;49.586;8.646;2023-11-22T08:30:09;6.20;;;3.80;;
10641;SDS011;5369;49.586;8.646;2023-11-22T08:32:45;6.10;;;3.57;;
10641;SDS011;5369;49.586;8.646;2023-11-22T08:35:16;5.43;;;3.80;;
10641;SDS011;5369;49.586;8.646;2023-11-22T08:37:43;5.63;;;4.10;;
10641;SDS011;5369;49.586;8.646;2023-11-22T08:40:10;9.77;;;3.80;;
10641;SDS011;5369;49.586;8.646;2023-11-22T08:42:36;6.53;;;4.40;;
10641;SDS011;5369;49.586;8.646;2023-11-22T08:45:02;4.57;;;3.60;;
10641;SDS011;5369;49.586;8.646;2023-11-22T08:47:29;5.37;;;3.87;;
10641;SDS011;5369;49.586;8.646;2023-11-22T08:49:56;4.20;;;3.60;;
10641;SDS011;5369;49.586;8.646;2023-11-22T08:52:22;5.67;;;4.10;;
10641;SDS011;5369;49.586;8.646;2023-11-22T08:54:49;7.73;;;4.20;;
10641;SDS011;5369;49.586;8.646;2023-11-22T08:57:17;4.33;;;3.63;;
10641;SDS011;5369;49.586;8.646;2023-11-22T08:59:43;5.07;;;3.90;;
10641;SDS011;5369;49.586;8.646;2023-11-22T09:02:09;3.90;;;3.30;;
10641;SDS011;5369;49.586;8.646;2023-11-22T09:04:37;5.43;;;3.83;;
10641;SDS011;5369;49.586;8.646;2023-11-22T09:07:07;4.47;;;3.40;;
10641;SDS011;5369;49.586;8.646;2023-11-22T09:09:35;5.07;;;3.67;;
10641;SDS011;5369;49.586;8.646;2023-11-22T09:12:01;4.77;;;3.40;;
10641;SDS011;5369;49.586;8.646;2023-11-22T09:14:27;4.37;;;3.63;;
10641;SDS011;5369;49.586;8.646;2023-11-22T09:16:54;6.13;;;3.60;;
10641;SDS011;5369;49.586;8.646;2023-11-22T09:19:20;4.07;;;3.37;;
10641;SDS011;5369;49.586;8.646;2023-11-22T09:21:47;6.07;;;3.43;;
10641;SDS011;5369;49.586;8.646;2023-11-22T09:24:13;4.60;;;3.53;;
10641;SDS011;5369;49.586;8.646;2023-11-22T09:26:39;4.60;;;3.60;;
10641;SDS011;5369;49.586;8.646;2023-11-22T09:29:06;5.93;;;3.90;;
10641;SDS011;5369;49.586;8.646;2023-11-22T09:31:32;4.97;;;3.60;;
10641;SDS011;5369;49.586;8.646;2023-11-22T09:33:58;4.77;;;3.37;;
10641;SDS011;5369;49.586;8.646;2023-11-22T09:36:26;6.20;;;4.20;;
10641;SDS011;5369;49.586;8.646;2023-11-22T09:38:53;4.27;;;3.40;;
10641;SDS011;5369;49.586;8.646;2023-11-22T09:41:19;4.70;;;3.57;;
10641;SDS011;5369;49.586;8.646;2023-11-22T09:43:46;4.30;;;3.40;;
10641;SDS011;5369;49.586;8.646;2023-11-22T09:46:15;4.30;;;3.50;;
10641;SDS011;5369;49.586;8.646;2023-11-22T09:48:45;3.43;;;3.10;;
10641;SDS011;5369;49.586;8.646;2023-11-22T09:51:20;4.60;;;3.60;;
10641;SDS011;5369;49.586;8.646;2023-11-22T09:53:52;6.43;;;3.50;;
10641;SDS011;5369;49.586;8.646;2023-11-22T09:56:20;4.93;;;3.57;;
10641;SDS011;5369;49.586;8.646;2023-11-22T09:58:46;4.17;;;3.53;;
10641;SDS011;5369;49.586;8.646;2023-11-22T10:01:16;4.47;;;3.30;;
10641;SDS011;5369;49.586;8.646;2023-11-22T10:03:42;4.17;;;3.23;;
10641;SDS011;5369;49.586;8.646;2023-11-22T10:06:09;6.20;;;4.20;;
10641;SDS011;5369;49.586;8.646;2023-11-22T10:08:35;4.50;;;3.60;;
10641;SDS011;5369;49.586;8.646;2023-11-22T10:11:02;5.37;;;3.50;;
10641;SDS011;5369;49.586;8.646;2023-11-22T10:13:29;4.93;;;3.33;;
10641;SDS011;5369;49.586;8.646;2023-11-22T10:15:55;5.83;;;3.63;;
10641;SDS011;5369;49.586;8.646;2023-11-22T10:18:21;4.93;;;3.33;;
10641;SDS011;5369;49.586;8.646;2023-11-22T10:20:50;4.50;;;3.40;;
10641;SDS011;5369;49.586;8.646;2023-11-22T10:23:16;4.90;;;3.50;;
10641;SDS011;5369;49.586;8.646;2023-11-22T10:25:47;4.60;;;3.70;;
10641;SDS011;5369;49.586;8.646;2023-11-22T10:28:17;4.83;;;3.30;;
10641;SDS011;5369;49.586;8.646;2023-11-22T10:30:45;5.33;;;3.57;;
10641;SDS011;5369;49.586;8.646;2023-11-22T10:33:11;7.00;;;3.47;;
10641;SDS011;5369;49.586;8.646;2023-11-22T10:35:42;4.67;;;3.27;;
10641;SDS011;5369;49.586;8.646;2023-11-22T10:38:08;4.50;;;3.50;;
10641;SDS011;5369;49.586;8.646;2023-11-22T10:40:36;4.63;;;3.43;;
10641;SDS011;5369;49.586;8.646;2023-11-22T10:43:02;3.93;;;3.20;;
10641;SDS011;5369;49.586;8.646;2023-11-22T10:45:29;5.77;;;3.90;;
10641;SDS011;5369;49.586;8.646;2023-11-22T10:47:58;5.17;;;3.80;;
10641;SDS011;5369;49.586;8.646;2023-11-22T10:50:26;5.83;;;4.00;;
10641;SDS011;5369;49.586;8.646;2023-11-22T10:52:53;5.20;;;3.60;;
10641;SDS011;5369;49.586;8.646;2023-11-22T10:55:25;4.83;;;3.73;;
10641;SDS011;5369;49.586;8.646;2023-11-22T10:57:52;4.90;;;3.70;;
10641;SDS011;5369;49.586;8.646;2023-11-22T11:00:20;4.40;;;3.60;;
10641;SDS011;5369;49.586;8.646;2023-11-22T11:02:51;4.87;;;3.30;;
10641;SDS011;5369;49.586;8.646;2023-11-22T11:05:19;3.80;;;3.20;;
10641;SDS011;5369;49.586;8.646;2023-11-22T11:07:49;5.23;;;3.83;;
10641;SDS011;5369;49.586;8.646;2023-11-22T11:10:17;4.93;;;3.60;;
10641;SDS011;5369;49.586;8.646;2023-11-22T11:12:44;4.70;;;3.67;;
10641;SDS011;5369;49.586;8.646;2023-11-22T11:15:11;5.10;;;3.47;;
10641;SDS011;5369;49.586;8.646;2023-11-22T11:17:37;4.23;;;3.50;;
10641;SDS011;5369;49.586;8.646;2023-11-22T11:20:05;5.57;;;3.20;;
10641;SDS011;5369;49.586;8.646;2023-11-22T11:22:34;4.63;;;3.33;;
10641;SDS011;5369;49.586;8.646;2023-11-22T11:25:01;4.77;;;3.83;;
10641;SDS011;5369;49.586;8.646;2023-11-22T11:27:32;5.50;;;3.40;;
10641;SDS011;5369;49.586;8.646;2023-11-22T11:30:00;3.57;;;3.10;;
10641;SDS011;5369;49.586;8.646;2023-11-22T11:32:30;3.90;;;2.90;;
10641;SDS011;5369;49.586;8.646;2023-11-22T11:35:08;3.57;;;3.07;;
10641;SDS011;5369;49.586;8.646;2023-11-22T11:37:34;4.27;;;3.10;;
10641;SDS011;5369;49.586;8.646;2023-11-22T11:42:48;4.47;;;3.40;;
10641;SDS011;5369;49.586;8.646;2023-11-22T11:45:14;4.23;;;3.40;;
10641;SDS011;5369;49.586;8.646;2023-11-22T11:47:41;4.57;;;3.67;;
10641;SDS011;5369;49.586;8.646;2023-11-22T11:50:08;4.20;;;3.60;;
10641;SDS011;5369;49.586;8.646;2023-11-22T11:52:35;7.53;;;5.37;;
10641;SDS011;5369;49.586;8.646;2023-11-22T11:55:04;5.30;;;4.53;;
10641;SDS011;5369;49.586;8.646;2023-11-22T11:57:31;6.13;;;3.67;;
10641;SDS011;5369;49.586;8.646;2023-11-22T11:59:57;4.43;;;3.53;;
10641;SDS011;5369;49.586;8.646;2023-11-22T12:02:24;5.33;;;3.63;;
10641;SDS011;5369;49.586;8.646;2023-11-22T12:04:50;4.37;;;3.43;;
10641;SDS011;5369;49.586;8.646;2023-11-22T12:07:17;4.10;;;3.57;;
10641;SDS011;5369;49.586;8.646;2023-11-22T12:09:43;3.80;;;3.00;;
10641;SDS011;5369;49.586;8.646;2023-11-22T12:12:09;3.50;;;2.87;;
10641;SDS011;5369;49.586;8.646;2023-11-22T12:14:35;3.67;;;3.00;;
10641;SDS011;5369;49.586;8.646;2023-11-22T12:17:01;4.33;;;3.50;;
10641;SDS011;5369;49.586;8.646;2023-11-22T12:19:31;4.90;;;3.53;;
10641;SDS011;5369;49.586;8.646;2023-11-22T12:21:58;5.03;;;3.10;;
10641;SDS011;5369;49.586;8.646;2023-11-22T12:24:24;3.80;;;3.13;;
10641;SDS011;5369;49.586;8.646;2023-11-22T12:26:51;4.00;;;3.23;;
10641;SDS011;5369;49.586;8.646;2023-11-22T12:29:19;4.87;;;4.07;;
10641;SDS011;5369;49.586;8.646;2023-11-22T12:31:49;4.80;;;4.30;;
10641;SDS011;5369;49.586;8.646;2023-11-22T12:34:20;4.17;;;3.40;;
10641;SDS011;5369;49.586;8.646;2023-11-22T12:36:47;3.83;;;3.43;;
10641;SDS011;5369;49.586;8.646;2023-11-22T12:39:14;6.83;;;4.20;;
10641;SDS011;5369;49.586;8.646;2023-11-22T12:41:44;6.50;;;3.67;;
10641;SDS011;5369;49.586;8.646;2023-11-22T12:44:11;4.20;;;3.30;;
10641;SDS011;5369;49.586;8.646;2023-11-22T12:46:50;4.70;;;3.43;;
10641;SDS011;5369;49.586;8.646;2023-11-22T12:49:42;6.73;;;4.27;;
10641;SDS011;5369;49.586;8.646;2023-11-22T12:52:10;5.63;;;3.47;;
10641;SDS011;5369;49.586;8.646;2023-11-22T12:54:37;4.83;;;3.77;;
10641;SDS011;5369;49.586;8.646;2023-11-22T12:57:04;3.30;;;2.90;;
10641;SDS011;5369;49.586;8.646;2023-11-22T12:59:38;3.57;;;3.17;;
10641;SDS011;5369;49.586;8.646;2023-11-22T13:02:06;4.50;;;4.10;;
10641;SDS011;5369;49.586;8.646;2023-11-22T13:04:32;4.40;;;3.67;;
10641;SDS011;5369;49.586;8.646;2023-11-22T13:06:58;5.50;;;3.50;;
10641;SDS011;5369;49.586;8.646;2023-11-22T13:09:30;3.87;;;3.30;;
10641;SDS011;5369;49.586;8.646;2023-11-22T13:11:57;3.87;;;3.00;;
10641;SDS011;5369;49.586;8.646;2023-11-22T13:14:23;4.13;;;3.50;;
10641;SDS011;5369;49.586;8.646;2023-11-22T13:16:52;3.57;;;2.93;;
10641;SDS011;5369;49.586;8.646;2023-11-22T13:19:18;4.57;;;3.53;;
10641;SDS011;5369;49.586;8.646;2023-11-22T13:21:44;5.30;;;3.60;;
10641;SDS011;5369;49.586;8.646;2023-11-22T13:24:12;5.13;;;3.63;;
10641;SDS011;5369;49.586;8.646;2023-11-22T13:26:41;5.40;;;3.27;;
10641;SDS011;5369;49.586;8.646;2023-11-22T13:29:07;4.03;;;3.17;;
10641;SDS011;5369;49.586;8.646;2023-11-22T13:31:34;3.73;;;3.27;;
10641;SDS011;5369;49.586;8.646;2023-11-22T13:34:00;4.13;;;3.23;;
10641;SDS011;5369;49.586;8.646;2023-11-22T13:36:26;3.23;;;2.80;;
10641;SDS011;5369;49.586;8.646;2023-11-22T13:38:53;3.90;;;3.13;;
10641;SDS011;5369;49.586;8.646;2023-11-22T13:41:20;3.17;;;2.87;;
10641;SDS011;5369;49.586;8.646;2023-11-22T13:43:47;4.37;;;3.00;;
10641;SDS011;5369;49.586;8.646;2023-11-22T13:46:14;3.43;;;2.87;;
10641;SDS011;5369;49.586;8.646;2023-11-22T13:48:40;3.70;;;2.53;;
10641;SDS011;5369;49.586;8.646;2023-11-22T13:51:07;3.40;;;3.10;;
10641;SDS011;5369;49.586;8.646;2023-11-22T13:53:35;3.60;;;2.77;;
10641;SDS011;5369;49.586;8.646;2023-11-22T13:56:04;3.20;;;2.50;;
10641;SDS011;5369;49.586;8.646;2023-11-22T13:58:34;3.87;;;3.07;;
10641;SDS011;5369;49.586;8.646;2023-11-22T14:01:00;3.40;;;3.10;;
10641;SDS011;5369;49.586;8.646;2023-11-22T14:03:28;4.83;;;3.13;;
10641;SDS011;5369;49.586;8.646;2023-11-22T14:05:54;3.27;;;2.90;;
10641;SDS011;5369;49.586;8.646;2023-11-22T14:08:22;2.90;;;2.50;;
10641;SDS011;5369;49.586;8.646;2023-11-22T14:10:50;3.13;;;2.63;;
10641;SDS011;5369;49.586;8.646;2023-11-22T14:13:16;8.20;;;2.80;;
10641;SDS011;5369;49.586;8.646;2023-11-22T14:15:43;3.37;;;2.93;;
10641;SDS011;5369;49.586;8.646;2023-11-22T14:18:10;4.47;;;3.67;;
10641;SDS011;5369;49.586;8.646;2023-11-22T14:20:36;7.00;;;6.30;;
10641;SDS011;5369;49.586;8.646;2023-11-22T14:23:02;6.07;;;5.30;;
10641;SDS011;5369;49.586;8.646;2023-11-22T14:25:28;5.10;;;4.60;;
10641;SDS011;5369;49.586;8.646;2023-11-22T14:27:54;9.93;;;8.67;;
10641;SDS011;5369;49.586;8.646;2023-11-22T14:30:22;9.97;;;8.27;;
10641;SDS011;5369;49.586;8.646;2023-11-22T14:32:50;4.80;;;4.07;;
10641;SDS011;5369;49.586;8.646;2023-11-22T14:35:16;5.00;;;3.80;;
10641;SDS011;5369;49.586;8.646;2023-11-22T14:37:43;4.17;;;3.63;;
10641;SDS011;5369;49.586;8.646;2023-11-22T14:40:10;4.40;;;3.80;;
10641;SDS011;5369;49.586;8.646;2023-11-22T14:42:39;6.47;;;4.70;;
10641;SDS011;5369;49.586;8.646;2023-11-22T14:45:06;9.97;;;8.43;;
10641;SDS011;5369;49.586;8.646;2023-11-22T14:47:32;7.47;;;5.47;;
10641;SDS011;5369;49.586;8.646;2023-11-22T14:50:01;7.57;;;5.47;;
10641;SDS011;5369;49.586;8.646;2023-11-22T14:52:29;6.57;;;4.90;;
10641;SDS011;5369;49.586;8.646;2023-11-22T14:54:56;5.23;;;4.43;;
10641;SDS011;5369;49.586;8.646;2023-11-22T14:57:25;5.50;;;4.63;;
10641;SDS011;5369;49.586;8.646;2023-11-22T14:59:51;4.93;;;4.43;;
10641;SDS011;5369;49.586;8.646;2023-11-22T15:02:17;5.63;;;4.83;;